Time;durP1;ratioP1;P1;durP2;ratioP2;P2;SDS_P1;SDS_P2;PMS_P1;PMS_P2;Temp;Humidity;BMP_temperature;BMP_pressure;BME280_temperature;BME280_humidity;BME280_pressure;Samples;Min_cycle;Max_cycle;Signal;HPM_P1;HPM_P2
2023/02/20 00:00:39;;;;;;;8.18;4.95;;;22.90;43.90;;;;;;6265094;27;80635;-55
2023/02/20 00:03:40;;;;;;;12.20;6.10;;;22.90;43.80;;;;;;6275276;27;80990;-55
2023/02/20 00:06:40;;;;;;;14.40;6.15;;;22.90;43.80;;;;;;6266634;27;80352;-62
2023/02/20 00:09:41;;;;;;;9.38;5.22;;;22.90;43.90;;;;;;6253900;27;81726;-63
2023/02/20 00:12:41;;;;;;;12.82;6.13;;;22.80;44.00;;;;;;6275188;27;80378;-63
2023/02/20 00:15:42;;;;;;;11.25;5.50;;;22.80;43.90;;;;;;6269930;27;81979;-64
2023/02/20 00:18:42;;;;;;;10.35;5.97;;;22.80;43.90;;;;;;6274634;27;82058;-64
2023/02/20 00:21:43;;;;;;;8.98;4.97;;;22.80;43.90;;;;;;6252830;27;80659;-63
2023/02/20 00:24:43;;;;;;;9.75;5.07;;;22.80;43.90;;;;;;6266275;27;80468;-63
2023/02/20 00:27:44;;;;;;;10.95;5.35;;;22.80;43.90;;;;;;6266047;27;81579;-63
2023/02/20 00:30:44;;;;;;;9.25;5.30;;;22.80;43.90;;;;;;6243521;27;81825;-62
2023/02/20 00:33:47;;;;;;;12.10;5.72;;;22.80;43.70;;;;;;6278600;27;80505;-61
2023/02/20 00:36:49;;;;;;;9.30;5.10;;;22.80;43.80;;;;;;6247206;27;83232;-62
2023/02/20 00:39:50;;;;;;;10.05;4.95;;;22.80;43.90;;;;;;6264197;27;80286;-62
2023/02/20 00:42:50;;;;;;;12.20;5.53;;;22.80;43.60;;;;;;6235012;27;83366;-63
2023/02/20 00:45:51;;;;;;;9.48;5.65;;;22.80;43.70;;;;;;6278035;27;80740;-63
2023/02/20 00:48:51;;;;;;;10.00;5.43;;;22.80;43.50;;;;;;6277534;27;80317;-63
2023/02/20 00:52:11;;;;;;;8.70;4.93;;;22.80;43.60;;;;;;6265585;27;80617;-63
2023/02/20 00:55:11;;;;;;;11.68;5.47;;;22.80;43.70;;;;;;6267020;27;80563;-62
2023/02/20 00:58:12;;;;;;;9.38;5.10;;;22.80;43.50;;;;;;6242928;27;83284;-62
2023/02/20 01:01:13;;;;;;;12.27;5.68;;;22.80;43.50;;;;;;6276565;27;81330;-56
2023/02/20 01:04:14;;;;;;;10.35;4.63;;;22.80;43.50;;;;;;6258539;27;83545;-53
2023/02/20 01:07:15;;;;;;;9.85;4.72;;;22.80;43.20;;;;;;6275926;27;80974;-57
2023/02/20 01:10:16;;;;;;;9.60;4.95;;;22.80;43.40;;;;;;6258724;27;83582;-56
2023/02/20 01:13:17;;;;;;;10.55;5.20;;;22.80;43.40;;;;;;6270606;27;80370;-53
2023/02/20 01:16:18;;;;;;;10.35;5.07;;;22.80;43.30;;;;;;6271740;27;81405;-54
2023/02/20 01:19:18;;;;;;;10.75;5.32;;;22.80;43.10;;;;;;6276952;27;80533;-58
2023/02/20 01:22:19;;;;;;;11.50;5.00;;;22.80;43.20;;;;;;6277107;27;80842;-58
2023/02/20 01:25:20;;;;;;;10.48;5.00;;;22.80;43.10;;;;;;6258267;27;81858;-59
2023/02/20 01:28:20;;;;;;;9.82;5.32;;;22.80;43.10;;;;;;6267846;27;80497;-59
2023/02/20 01:31:21;;;;;;;11.90;5.13;;;22.80;43.10;;;;;;6263653;27;80334;-61
2023/02/20 01:34:21;;;;;;;9.23;4.90;;;22.80;43.10;;;;;;6264112;27;82073;-60
2023/02/20 01:37:22;;;;;;;10.25;4.97;;;22.80;43.00;;;;;;6276041;27;80262;-61
2023/02/20 01:51:12;;;;;;;11.65;4.60;;;22.80;42.90;;;;;;6248360;27;82274;-59
2023/02/20 01:54:13;;;;;;;10.38;5.00;;;22.80;42.90;;;;;;6308827;27;80658;-58
2023/02/20 01:57:13;;;;;;;7.82;4.30;;;22.80;42.80;;;;;;6275287;27;80542;-58
2023/02/20 02:00:14;;;;;;;7.97;4.00;;;22.80;42.90;;;;;;6254924;27;83542;-59
2023/02/20 02:03:18;;;;;;;10.10;4.28;;;22.80;42.80;;;;;;6294468;27;83812;-60
2023/02/20 02:06:24;;;;;;;9.13;4.70;;;22.80;42.80;;;;;;6258852;27;82250;-59
2023/02/20 02:09:25;;;;;;;9.85;4.93;;;22.70;42.70;;;;;;6292309;27;80593;-59
2023/02/20 02:12:25;;;;;;;8.82;4.15;;;22.80;42.80;;;;;;6296972;27;81199;-59
2023/02/20 02:15:26;;;;;;;8.77;4.45;;;22.70;42.70;;;;;;6269112;27;81644;-53
2023/02/20 02:18:26;;;;;;;12.13;5.28;;;22.70;42.60;;;;;;6278038;27;81384;-53
2023/02/20 02:21:27;;;;;;;8.15;4.05;;;22.70;42.50;;;;;;6286852;27;80592;-53
2023/02/20 02:24:27;;;;;;;11.93;4.70;;;22.70;42.40;;;;;;6300673;27;80544;-55
2023/02/20 02:27:28;;;;;;;9.10;4.07;;;22.70;42.40;;;;;;6300815;27;81034;-53
2023/02/20 02:30:28;;;;;;;10.07;4.57;;;22.70;42.40;;;;;;6288022;27;82626;-54
2023/02/20 02:33:29;;;;;;;7.65;4.50;;;22.70;42.50;;;;;;6301966;27;83628;-50
2023/02/20 02:36:29;;;;;;;8.77;4.28;;;22.70;42.30;;;;;;6286742;27;80475;-52
2023/02/20 02:39:30;;;;;;;9.23;4.57;;;22.70;42.20;;;;;;6291451;27;80657;-51
2023/02/20 02:42:30;;;;;;;8.68;4.15;;;22.70;42.20;;;;;;6300409;27;82209;-54
2023/02/20 02:45:31;;;;;;;8.55;4.43;;;22.70;42.00;;;;;;6301378;27;80353;-53
2023/02/20 02:48:31;;;;;;;7.82;4.05;;;22.70;42.00;;;;;;6268125;27;81562;-53
2023/02/20 02:51:32;;;;;;;7.10;4.13;;;22.70;42.10;;;;;;6287346;27;80375;-53
2023/02/20 02:54:33;;;;;;;9.75;4.38;;;22.70;42.10;;;;;;6298489;27;80113;-52
2023/02/20 02:57:33;;;;;;;7.50;4.35;;;22.70;42.10;;;;;;6289878;27;81060;-54
2023/02/20 03:00:35;;;;;;;7.72;4.40;;;22.70;42.30;;;;;;6292574;27;82340;-50
2023/02/20 03:03:35;;;;;;;7.53;4.22;;;22.70;42.20;;;;;;6300648;27;81869;-52
2023/02/20 03:06:36;;;;;;;7.68;4.10;;;22.70;42.00;;;;;;6270676;27;84081;-56
2023/02/20 03:09:37;;;;;;;10.20;4.55;;;22.70;42.10;;;;;;6289042;27;81393;-57
2023/02/20 03:12:37;;;;;;;9.23;3.95;;;22.70;42.10;;;;;;6290449;27;81425;-57
2023/02/20 03:15:38;;;;;;;11.30;4.53;;;22.70;42.00;;;;;;6282925;27;83204;-57
2023/02/20 03:18:39;;;;;;;7.85;4.13;;;22.70;42.00;;;;;;6286761;27;83753;-56
2023/02/20 03:21:39;;;;;;;8.50;3.90;;;22.70;41.60;;;;;;6305809;27;80649;-58
2023/02/20 03:24:55;;;;;;;8.32;3.88;;;22.70;41.50;;;;;;6305490;27;80728;-57
2023/02/20 03:28:02;;;;;;;8.18;3.90;;;22.70;41.70;;;;;;6284139;27;84005;-60
2023/02/20 03:31:03;;;;;;;8.75;4.35;;;22.70;41.60;;;;;;6292024;27;80282;-57
2023/02/20 03:44:02;;;;;;;10.68;4.55;;;22.70;41.50;;;;;;6299433;27;83222;-59
2023/02/20 03:47:03;;;;;;;8.75;3.80;;;22.70;41.50;;;;;;6304366;27;81474;-52
2023/02/20 03:50:04;;;;;;;9.45;3.85;;;22.70;41.40;;;;;;6277700;27;84050;-53
2023/02/20 03:53:07;;;;;;;8.77;3.92;;;22.70;41.30;;;;;;6278259;27;80036;-54
2023/02/20 03:56:08;;;;;;;8.85;4.15;;;22.70;41.30;;;;;;6267677;27;82209;-53
2023/02/20 03:59:08;;;;;;;6.72;3.70;;;22.70;41.30;;;;;;6296681;27;80836;-54
2023/02/20 04:02:09;;;;;;;8.43;3.70;;;22.70;41.30;;;;;;6279165;27;83565;-50
2023/02/20 04:05:10;;;;;;;6.43;3.53;;;22.70;41.20;;;;;;6272167;27;81780;-51
2023/02/20 04:08:11;;;;;;;5.75;3.30;;;22.70;41.10;;;;;;6281495;27;83162;-55
2023/02/20 04:11:12;;;;;;;7.18;3.83;;;22.70;41.00;;;;;;6295609;27;80604;-54
2023/02/20 04:14:12;;;;;;;5.72;3.65;;;22.70;40.80;;;;;;6282977;27;83356;-52
2023/02/20 04:17:13;;;;;;;7.78;3.67;;;22.70;41.10;;;;;;6284684;27;81902;-56
2023/02/20 04:20:14;;;;;;;7.85;2.88;;;22.70;40.90;;;;;;6271672;27;87840;-54
2023/02/20 04:23:22;;;;;;;8.50;3.60;;;22.70;41.00;;;;;;6271718;27;83100;-54
2023/02/20 04:26:23;;;;;;;6.63;3.60;;;22.80;40.60;;;;;;6270432;27;83586;-53
2023/02/20 04:29:24;;;;;;;6.45;3.65;;;22.80;40.60;;;;;;6284339;27;83003;-51
2023/02/20 04:32:25;;;;;;;7.32;3.40;;;22.90;40.40;;;;;;6271063;27;80821;-54
2023/02/20 04:35:27;;;;;;;7.30;3.00;;;23.00;40.30;;;;;;6284600;27;83204;-53
2023/02/20 04:38:27;;;;;;;7.00;3.40;;;23.00;40.20;;;;;;6261596;27;83136;-55
2023/02/20 04:41:29;;;;;;;5.55;3.17;;;23.10;40.00;;;;;;6264511;27;83921;-60
2023/02/20 04:44:30;;;;;;;7.65;3.25;;;23.10;40.10;;;;;;6271444;27;82799;-61
2023/02/20 04:47:31;;;;;;;7.57;3.03;;;23.10;39.90;;;;;;6259121;27;82657;-60
2023/02/20 05:08:25;;;;;;;7.70;2.60;;;23.30;39.30;;;;;;6256804;27;80260;-57
2023/02/20 05:11:26;;;;;;;6.28;2.80;;;23.30;39.30;;;;;;6237691;27;85458;-58
2023/02/20 05:14:26;;;;;;;7.05;3.25;;;23.30;39.20;;;;;;6234411;27;80843;-59
2023/02/20 05:17:27;;;;;;;7.20;2.85;;;23.30;38.90;;;;;;6237896;27;81032;-58
2023/02/20 05:23:47;;;;;;;9.07;3.25;;;23.30;39.00;;;;;;6235437;28;80859;-57
2023/02/20 05:26:48;;;;;;;5.93;2.60;;;23.30;39.60;;;;;;6236019;27;81604;-60
2023/02/20 05:29:48;;;;;;;6.28;2.92;;;23.30;40.00;;;;;;6240209;27;81099;-60
2023/02/20 05:32:49;;;;;;;5.30;2.40;;;23.30;40.00;;;;;;6244708;27;82723;-61
2023/02/20 05:35:49;;;;;;;5.32;2.33;;;23.30;39.50;;;;;;6241304;28;80344;-63
2023/02/20 05:38:50;;;;;;;5.38;2.60;;;23.30;39.60;;;;;;6231536;27;80496;-63
2023/02/20 05:41:51;;;;;;;5.35;2.63;;;23.30;39.20;;;;;;6230514;27;80920;-64
2023/02/20 05:44:51;;;;;;;4.78;2.55;;;23.30;39.50;;;;;;6247052;27;80853;-67
2023/02/20 05:47:52;;;;;;;4.10;2.30;;;23.40;39.60;;;;;;6240093;27;80867;-72
2023/02/20 05:50:53;;;;;;;5.38;2.75;;;23.40;39.50;;;;;;6241157;27;81553;-61
2023/02/20 05:53:54;;;;;;;3.67;2.42;;;23.40;39.60;;;;;;6243465;28;81815;-67
2023/02/20 05:56:54;;;;;;;11.68;2.60;;;23.40;39.50;;;;;;6221900;27;80338;-61
2023/02/20 05:59:55;;;;;;;4.40;2.35;;;23.40;39.30;;;;;;6236229;27;80448;-75
2023/02/20 06:02:56;;;;;;;5.95;2.72;;;23.40;39.10;;;;;;6235516;27;81050;-72
2023/02/20 06:05:56;;;;;;;5.97;2.45;;;23.40;38.60;;;;;;6250046;27;80374;-61
2023/02/20 06:08:57;;;;;;;4.72;2.83;;;23.50;38.70;;;;;;6248526;27;81253;-62
2023/02/20 06:11:57;;;;;;;4.25;2.53;;;23.40;38.80;;;;;;6234626;27;81883;-62
2023/02/20 06:14:58;;;;;;;7.00;2.78;;;23.50;38.70;;;;;;6249792;28;80053;-63
2023/02/20 06:17:58;;;;;;;7.78;2.67;;;23.50;39.30;;;;;;6238929;27;80560;-69
2023/02/20 06:20:59;;;;;;;4.63;2.30;;;23.50;39.00;;;;;;6234588;27;81118;-64
2023/02/20 06:23:59;;;;;;;5.85;2.50;;;23.40;38.70;;;;;;6238962;27;81175;-62
2023/02/20 06:27:00;;;;;;;7.00;2.50;;;23.40;38.60;;;;;;6243557;27;80419;-75
2023/02/20 06:30:00;;;;;;;3.80;2.50;;;23.40;38.50;;;;;;6234445;27;80451;-63
2023/02/20 06:33:01;;;;;;;5.80;2.92;;;23.40;38.60;;;;;;6235002;27;80974;-63
2023/02/20 06:36:01;;;;;;;5.95;2.90;;;23.30;39.00;;;;;;6243190;27;80648;-68
2023/02/20 06:39:02;;;;;;;9.68;2.95;;;23.30;38.70;;;;;;6235050;27;80308;-69
2023/02/20 06:42:02;;;;;;;6.65;2.90;;;23.20;38.60;;;;;;6233482;27;82420;-63
2023/02/20 06:45:03;;;;;;;6.30;2.72;;;23.20;38.90;;;;;;6177785;27;82517;-65
2023/02/20 06:48:04;;;;;;;4.80;2.45;;;23.20;39.10;;;;;;6236063;27;81100;-64
2023/02/20 06:51:04;;;;;;;5.35;2.38;;;23.20;39.00;;;;;;6240540;27;80362;-58
2023/02/20 06:54:05;;;;;;;4.68;2.67;;;23.20;38.90;;;;;;6236665;27;82061;-58
2023/02/20 06:57:05;;;;;;;5.85;2.97;;;23.10;39.00;;;;;;6237457;27;81082;-59
2023/02/20 07:00:06;;;;;;;4.30;2.45;;;23.10;39.30;;;;;;6185936;27;86723;-59
2023/02/20 07:03:06;;;;;;;6.38;2.97;;;23.10;39.60;;;;;;6244966;27;80479;-60
2023/02/20 07:06:07;;;;;;;5.38;2.90;;;23.10;39.30;;;;;;6235289;27;81356;-59
2023/02/20 07:09:08;;;;;;;6.53;2.58;;;23.10;39.30;;;;;;6224741;27;80513;-60
2023/02/20 07:12:08;;;;;;;9.23;2.70;;;23.10;39.50;;;;;;6234210;27;80549;-60
2023/02/20 07:15:09;;;;;;;5.72;2.72;;;23.00;39.10;;;;;;6241232;27;82284;-59
2023/02/20 07:18:09;;;;;;;8.68;3.25;;;23.00;39.20;;;;;;6236804;27;83994;-59
2023/02/20 07:21:10;;;;;;;5.97;2.90;;;23.00;39.20;;;;;;6243424;27;80382;-59
2023/02/20 07:24:10;;;;;;;8.63;2.80;;;23.00;38.90;;;;;;6239448;27;80768;-59
2023/02/20 07:27:12;;;;;;;5.40;2.67;;;23.00;38.90;;;;;;6228044;27;80514;-58
2023/02/20 07:30:13;;;;;;;4.35;2.50;;;23.00;39.00;;;;;;6235270;27;84776;-58
2023/02/20 07:33:13;;;;;;;7.57;2.90;;;23.00;39.00;;;;;;6244393;27;85262;-58
2023/02/20 07:36:14;;;;;;;6.95;2.67;;;23.00;38.90;;;;;;6236023;27;86074;-60
2023/02/20 07:39:15;;;;;;;4.35;2.45;;;23.00;39.20;;;;;;6238234;27;84994;-60
2023/02/20 07:42:15;;;;;;;4.32;2.72;;;23.00;39.30;;;;;;6228578;27;83060;-71
2023/02/20 07:45:22;;;;;;;6.38;2.70;;;23.00;39.20;;;;;;6225173;27;83384;-59
2023/02/20 07:48:23;;;;;;;4.72;2.47;;;23.00;39.10;;;;;;6219224;27;80356;-59
2023/02/20 07:51:23;;;;;;;7.57;2.90;;;23.00;39.20;;;;;;6229075;28;80642;-59
2023/02/20 07:54:26;;;;;;;4.95;2.53;;;23.00;39.00;;;;;;6225179;27;83443;-59
2023/02/20 07:57:26;;;;;;;5.63;2.78;;;23.00;39.30;;;;;;6236655;27;81314;-59
2023/02/20 08:00:27;;;;;;;4.57;2.50;;;23.10;39.60;;;;;;6232242;27;82574;-61
2023/02/20 08:03:27;;;;;;;6.18;2.72;;;23.10;39.70;;;;;;6238625;27;81500;-59
2023/02/20 08:06:28;;;;;;;5.32;2.90;;;23.10;40.20;;;;;;6209336;28;82733;-59
2023/02/20 08:09:28;;;;;;;7.00;2.28;;;23.10;40.40;;;;;;6242135;27;82869;-58
2023/02/20 08:12:29;;;;;;;5.78;2.60;;;23.10;40.30;;;;;;6236972;27;82285;-59
2023/02/20 08:15:29;;;;;;;5.10;2.33;;;23.10;40.40;;;;;;6240707;27;80474;-60
2023/02/20 08:18:30;;;;;;;4.82;2.42;;;23.10;39.90;;;;;;6207711;27;82796;-59
2023/02/20 08:21:30;;;;;;;5.43;2.70;;;23.10;40.10;;;;;;6241064;27;80847;-59
2023/02/20 08:24:31;;;;;;;6.78;2.70;;;23.10;40.80;;;;;;6247541;27;80508;-59
2023/02/20 08:27:31;;;;;;;5.05;2.70;;;23.10;40.60;;;;;;6243930;27;81657;-59
2023/02/20 08:30:32;;;;;;;5.30;2.85;;;23.10;40.50;;;;;;6241705;27;81360;-59
2023/02/20 08:33:33;;;;;;;5.22;2.40;;;23.10;40.50;;;;;;6248163;27;81863;-58
2023/02/20 08:36:34;;;;;;;5.10;2.90;;;23.10;40.60;;;;;;6229148;27;82795;-59
2023/02/20 08:39:34;;;;;;;5.07;2.80;;;23.10;40.50;;;;;;6240601;27;84602;-52
2023/02/20 08:42:35;;;;;;;6.28;3.10;;;23.20;40.50;;;;;;6232478;27;85165;-55
2023/02/20 08:45:35;;;;;;;5.93;2.78;;;23.20;40.40;;;;;;6227534;27;85562;-54
2023/02/20 08:48:36;;;;;;;5.35;2.88;;;23.20;40.40;;;;;;6235704;27;85577;-56
2023/02/20 08:51:36;;;;;;;7.65;3.40;;;23.20;40.30;;;;;;6232261;27;82775;-54
2023/02/20 08:54:37;;;;;;;8.50;3.80;;;23.20;40.20;;;;;;6239153;27;81247;-54
2023/02/20 08:57:37;;;;;;;18.58;4.68;;;23.20;40.20;;;;;;6239664;27;80998;-54
2023/02/20 09:00:38;;;;;;;10.77;3.42;;;23.20;40.30;;;;;;6231729;27;84794;-52
2023/02/20 09:03:40;;;;;;;9.15;3.15;;;22.90;37.90;;;;;;6230390;27;80320;-50
2023/02/20 09:06:41;;;;;;;6.53;2.80;;;22.60;37.40;;;;;;6238143;27;81967;-53
2023/02/20 09:09:41;;;;;;;5.38;2.70;;;22.50;37.30;;;;;;6246466;27;82062;-49
2023/02/20 09:12:42;;;;;;;6.55;2.90;;;22.40;37.20;;;;;;6228147;27;80992;-48
2023/02/20 09:15:42;;;;;;;6.22;2.67;;;22.20;36.90;;;;;;6240159;27;81179;-53
2023/02/20 09:18:43;;;;;;;4.25;2.53;;;22.10;36.60;;;;;;6245847;27;81739;-51
2023/02/20 09:21:43;;;;;;;5.18;2.33;;;21.90;36.50;;;;;;6226343;28;80918;-50
2023/02/20 09:24:45;;;;;;;5.72;2.25;;;21.70;36.50;;;;;;6210567;27;86279;-54
2023/02/20 09:27:46;;;;;;;4.55;2.50;;;21.60;36.50;;;;;;6242373;28;80484;-53
2023/02/20 09:30:46;;;;;;;8.32;2.97;;;21.50;36.60;;;;;;6233187;27;80845;-53
2023/02/20 09:33:47;;;;;;;4.97;2.47;;;21.50;36.50;;;;;;6252335;28;79990;-52
2023/02/20 09:36:47;;;;;;;5.40;2.50;;;21.40;36.50;;;;;;6253247;27;81014;-65
2023/02/20 09:39:48;;;;;;;5.15;2.47;;;21.40;36.70;;;;;;6251418;28;81065;-66
2023/02/20 09:42:48;;;;;;;5.28;2.35;;;21.60;38.20;;;;;;6252571;27;81129;-69
2023/02/20 09:45:49;;;;;;;5.28;2.28;;;21.80;38.30;;;;;;6243164;28;81124;-66
2023/02/20 09:48:49;;;;;;;3.25;2.00;;;21.90;38.40;;;;;;6235330;28;87655;-67
2023/02/20 09:51:50;;;;;;;3.25;1.67;;;22.10;38.70;;;;;;6252456;28;80501;-64
2023/02/20 09:54:50;;;;;;;7.25;2.00;;;22.20;38.70;;;;;;6235823;27;80449;-51
2023/02/20 09:57:51;;;;;;;6.40;2.40;;;22.30;38.50;;;;;;6252314;28;80259;-53
2023/02/20 10:00:51;;;;;;;4.22;2.33;;;22.30;38.20;;;;;;6237612;28;81252;-54
2023/02/20 10:03:52;;;;;;;2.53;1.73;;;22.40;38.40;;;;;;6244258;27;82599;-56
2023/02/20 10:06:52;;;;;;;7.10;2.00;;;22.50;38.50;;;;;;6237572;27;84210;-53
2023/02/20 10:09:53;;;;;;;3.72;1.90;;;22.50;38.70;;;;;;6234923;27;81743;-56
2023/02/20 10:12:53;;;;;;;3.75;2.00;;;22.60;38.90;;;;;;6234084;27;81888;-54
2023/02/20 10:15:54;;;;;;;3.55;1.77;;;22.60;39.10;;;;;;6223785;27;80383;-53
2023/02/20 10:18:54;;;;;;;4.68;1.77;;;22.70;39.20;;;;;;6219544;27;83158;-54
2023/02/20 10:21:55;;;;;;;3.60;2.17;;;22.70;39.20;;;;;;6234901;27;84675;-53
2023/02/20 10:24:56;;;;;;;3.22;1.95;;;22.70;39.30;;;;;;6232275;27;81284;-52
2023/02/20 10:27:56;;;;;;;3.95;1.95;;;22.80;39.30;;;;;;6236131;27;82621;-53
2023/02/20 10:30:57;;;;;;;2.22;1.83;;;22.80;39.30;;;;;;6238059;27;81669;-52
2023/02/20 10:33:57;;;;;;;3.33;1.98;;;22.80;39.30;;;;;;6229328;27;80644;-55
2023/02/20 10:36:58;;;;;;;3.95;1.95;;;22.80;39.30;;;;;;6245762;27;80463;-55
2023/02/20 10:39:58;;;;;;;3.42;1.95;;;22.80;39.30;;;;;;6240047;27;81008;-52
2023/02/20 10:43:00;;;;;;;3.67;1.98;;;22.80;39.30;;;;;;6231936;27;81359;-54
2023/02/20 10:46:01;;;;;;;5.10;1.98;;;22.90;40.10;;;;;;6245397;27;80378;-54
2023/02/20 10:49:01;;;;;;;3.28;1.88;;;22.90;39.40;;;;;;6245099;28;80570;-67
2023/02/20 10:52:02;;;;;;;6.97;2.75;;;22.90;39.30;;;;;;6230773;28;81948;-67
2023/02/20 10:55:02;;;;;;;6.90;2.35;;;22.90;39.30;;;;;;6240798;28;80748;-69
2023/02/20 10:58:03;;;;;;;4.22;1.75;;;23.00;39.30;;;;;;6238525;28;81892;-66
2023/02/20 11:01:04;;;;;;;3.35;2.00;;;23.00;39.20;;;;;;6248423;28;82470;-67
2023/02/20 11:04:04;;;;;;;2.80;1.80;;;23.00;39.10;;;;;;6249353;27;82968;-65
2023/02/20 11:07:05;;;;;;;4.85;1.85;;;23.10;39.20;;;;;;6247121;28;80211;-66
2023/02/20 11:10:05;;;;;;;2.45;1.70;;;23.10;38.80;;;;;;6249058;27;80552;-65
2023/02/20 11:13:06;;;;;;;4.07;2.10;;;23.10;39.00;;;;;;6238717;27;80372;-65
2023/02/20 11:16:07;;;;;;;4.22;2.15;;;23.10;38.90;;;;;;6249333;28;81220;-67
2023/02/20 11:19:07;;;;;;;5.32;2.47;;;23.10;38.80;;;;;;6246114;27;80987;-66
2023/02/20 11:22:08;;;;;;;6.40;2.33;;;23.20;38.80;;;;;;6250181;27;80479;-66
2023/02/20 11:25:08;;;;;;;4.55;2.40;;;23.20;38.40;;;;;;6247869;28;81468;-66
2023/02/20 11:28:09;;;;;;;4.90;2.22;;;23.20;38.30;;;;;;6246117;27;82532;-66
2023/02/20 11:31:10;;;;;;;4.22;2.15;;;23.20;38.00;;;;;;6229175;28;80273;-73
2023/02/20 11:34:10;;;;;;;3.55;2.30;;;23.20;38.30;;;;;;6242687;28;80666;-67
2023/02/20 11:37:10;;;;;;;3.22;2.45;;;23.30;37.60;;;;;;6253552;27;80434;-64
2023/02/20 11:40:11;;;;;;;4.78;2.65;;;23.20;37.40;;;;;;6249790;28;80501;-66
2023/02/20 11:43:12;;;;;;;3.45;2.15;;;23.30;37.40;;;;;;6242039;27;81821;-64
2023/02/20 11:46:12;;;;;;;5.40;3.47;;;23.30;37.40;;;;;;6242753;27;81082;-65
2023/02/20 11:49:14;;;;;;;7.38;3.47;;;23.30;37.40;;;;;;6241915;27;83240;-62
2023/02/20 11:52:15;;;;;;;4.30;2.70;;;23.30;37.30;;;;;;6228629;27;84006;-54
2023/02/20 11:55:16;;;;;;;5.38;3.40;;;23.40;37.30;;;;;;6243833;27;80436;-54
2023/02/20 11:58:16;;;;;;;7.55;3.55;;;23.40;37.40;;;;;;6233209;27;80446;-56
2023/02/20 12:01:17;;;;;;;10.75;5.10;;;23.40;37.40;;;;;;6215962;27;83344;-53
2023/02/20 12:04:17;;;;;;;19.80;7.10;;;23.40;37.80;;;;;;6216356;27;84293;-54
2023/02/20 12:07:18;;;;;;;19.73;7.82;;;23.40;38.10;;;;;;6227816;27;82105;-54
2023/02/20 12:10:19;;;;;;;13.05;5.32;;;23.40;38.00;;;;;;6227969;27;80985;-53
2023/02/20 12:13:19;;;;;;;10.57;4.80;;;23.40;37.80;;;;;;6235813;27;80805;-52
2023/02/20 12:16:21;;;;;;;9.25;3.78;;;23.40;37.60;;;;;;6243409;27;82760;-55
2023/02/20 12:19:22;;;;;;;7.28;3.50;;;23.40;37.50;;;;;;6239560;27;81018;-55
2023/02/20 12:22:22;;;;;;;4.18;2.85;;;23.40;37.80;;;;;;6240660;27;80251;-57
2023/02/20 12:25:23;;;;;;;4.65;3.05;;;23.40;38.10;;;;;;6232698;27;82047;-55
2023/02/20 12:28:23;;;;;;;5.93;2.78;;;23.50;37.80;;;;;;6235160;27;80697;-55
2023/02/20 12:31:24;;;;;;;6.03;2.60;;;23.50;37.60;;;;;;6207965;27;80489;-56
2023/02/20 12:34:24;;;;;;;6.25;3.20;;;23.50;37.10;;;;;;6237069;27;85572;-55
2023/02/20 12:37:25;;;;;;;6.70;3.10;;;23.50;36.80;;;;;;6233299;27;80904;-52
2023/02/20 12:40:25;;;;;;;2.53;2.10;;;23.50;36.70;;;;;;6238130;27;84328;-71
2023/02/20 12:43:26;;;;;;;7.03;2.92;;;23.50;36.60;;;;;;6234868;27;81204;-53
2023/02/20 12:46:26;;;;;;;4.18;2.60;;;23.40;36.60;;;;;;6234026;27;82532;-55
2023/02/20 12:49:27;;;;;;;6.63;2.72;;;23.40;36.60;;;;;;6230483;27;81327;-56
2023/02/20 12:52:30;;;;;;;5.90;3.08;;;23.40;36.70;;;;;;6227575;27;80529;-58
2023/02/20 12:55:30;;;;;;;3.88;2.60;;;23.40;36.90;;;;;;6238893;27;81554;-56
2023/02/20 12:58:31;;;;;;;3.25;2.60;;;23.40;36.90;;;;;;6235941;27;80972;-56
2023/02/20 13:01:32;;;;;;;3.53;2.40;;;23.40;37.00;;;;;;6237131;27;80396;-55
2023/02/20 13:04:33;;;;;;;3.30;2.22;;;23.40;37.20;;;;;;6248733;27;81076;-56
2023/02/20 13:07:33;;;;;;;3.50;2.65;;;23.40;37.20;;;;;;6243808;27;80638;-57
2023/02/20 13:10:34;;;;;;;4.03;2.45;;;23.40;37.30;;;;;;6232849;27;80436;-56
2023/02/20 13:13:34;;;;;;;2.85;2.45;;;23.40;37.30;;;;;;6229982;27;80829;-57
2023/02/20 13:16:35;;;;;;;2.90;2.58;;;23.50;37.50;;;;;;6243445;27;80557;-56
2023/02/20 13:19:35;;;;;;;3.80;2.40;;;23.50;37.50;;;;;;6234139;27;84290;-58
2023/02/20 13:22:36;;;;;;;4.28;2.88;;;23.50;37.50;;;;;;6230331;27;81351;-57
2023/02/20 13:25:40;;;;;;;3.30;2.25;;;23.50;37.50;;;;;;6247393;27;80105;-57
2023/02/20 13:28:47;;;;;;;3.08;2.42;;;23.50;37.50;;;;;;6249189;27;80502;-56
2023/02/20 13:31:47;;;;;;;12.13;2.80;;;23.60;37.60;;;;;;6218487;27;81338;-60
2023/02/20 13:34:48;;;;;;;3.85;2.33;;;23.60;37.70;;;;;;6226687;27;85610;-53
2023/02/20 13:37:48;;;;;;;4.10;2.53;;;23.60;37.80;;;;;;6237449;27;83027;-56
2023/02/20 13:40:49;;;;;;;4.15;3.05;;;23.60;37.70;;;;;;6221992;27;80454;-59
2023/02/20 13:43:49;;;;;;;2.75;2.20;;;23.60;37.60;;;;;;6237683;27;80451;-57
2023/02/20 13:46:50;;;;;;;4.07;2.58;;;23.60;37.50;;;;;;6221997;27;80548;-57
2023/02/20 13:49:51;;;;;;;3.20;2.50;;;23.60;37.40;;;;;;6241869;27;81340;-55
2023/02/20 13:52:55;;;;;;;3.90;2.63;;;23.60;37.40;;;;;;6227095;27;80412;-58
2023/02/20 13:55:56;;;;;;;4.90;2.55;;;23.60;37.40;;;;;;6237752;27;80738;-55
2023/02/20 13:58:56;;;;;;;3.83;2.63;;;23.60;37.50;;;;;;6235121;27;81426;-57
2023/02/20 14:01:57;;;;;;;4.43;2.83;;;23.60;37.40;;;;;;6240706;27;80672;-56
2023/02/20 14:04:58;;;;;;;3.72;2.58;;;23.70;37.60;;;;;;6230403;27;81164;-56
2023/02/20 14:07:58;;;;;;;3.63;2.38;;;23.70;37.40;;;;;;6225081;27;83019;-57
2023/02/20 14:10:58;;;;;;;5.63;2.67;;;23.70;37.30;;;;;;6238128;27;82327;-55
2023/02/20 14:13:59;;;;;;;6.03;2.78;;;23.70;37.30;;;;;;6233962;27;84701;-56
2023/02/20 14:17:00;;;;;;;8.60;2.88;;;23.70;37.60;;;;;;6230326;27;80359;-56
2023/02/20 14:20:01;;;;;;;180.90;71.78;;;23.70;37.90;;;;;;6238882;27;81044;-55
2023/02/20 14:23:02;;;;;;;223.38;93.03;;;23.70;38.30;;;;;;6234322;27;82825;-58
2023/02/20 14:26:02;;;;;;;308.98;129.95;;;23.70;38.30;;;;;;6206972;27;87374;-58
2023/02/20 14:29:03;;;;;;;483.88;194.77;;;23.60;38.20;;;;;;6230351;27;91792;-70
2023/02/20 14:32:05;;;;;;;580.13;253.57;;;23.70;38.40;;;;;;6222280;27;87584;-57
2023/02/20 14:35:07;;;;;;;624.65;282.90;;;23.60;38.40;;;;;;6226803;27;89093;-56
2023/02/20 14:38:07;;;;;;;783.60;358.05;;;23.60;38.50;;;;;;6227330;27;85896;-59
2023/02/20 14:41:08;;;;;;;546.45;236.63;;;23.60;38.70;;;;;;6238331;27;86307;-56
2023/02/20 14:44:08;;;;;;;659.50;301.40;;;23.60;38.90;;;;;;6233456;27;86018;-58
2023/02/20 14:47:09;;;;;;;737.85;350.20;;;23.50;38.70;;;;;;6224916;27;89288;-67
2023/02/20 14:50:09;;;;;;;739.47;354.63;;;23.60;38.70;;;;;;6206440;27;90882;-59
2023/02/20 14:53:10;;;;;;;748.20;351.20;;;23.60;38.60;;;;;;6207159;27;85560;-59
2023/02/20 14:56:10;;;;;;;683.95;324.02;;;23.50;39.00;;;;;;6221149;27;86529;-58
2023/02/20 14:59:11;;;;;;;651.30;302.27;;;23.50;38.80;;;;;;6208604;27;88403;-59
2023/02/20 15:02:11;;;;;;;595.80;272.77;;;23.40;38.90;;;;;;6224559;27;86515;-58
2023/02/20 15:05:12;;;;;;;541.63;239.30;;;23.40;38.80;;;;;;6224606;27;85405;-58
2023/02/20 15:08:13;;;;;;;498.63;216.45;;;23.40;38.80;;;;;;6226687;27;87837;-58
2023/02/20 15:11:13;;;;;;;502.95;195.90;;;23.40;39.10;;;;;;6229653;27;86089;-58
2023/02/20 15:14:14;;;;;;;406.17;163.60;;;23.40;39.30;;;;;;6232206;27;86481;-58
2023/02/20 15:17:14;;;;;;;345.00;138.73;;;23.30;39.40;;;;;;6233315;27;88518;-58
2023/02/20 15:20:15;;;;;;;326.13;127.75;;;23.30;39.50;;;;;;6233024;27;87683;-58
2023/02/20 15:23:16;;;;;;;298.30;122.05;;;23.30;39.90;;;;;;6238318;27;86186;-66
2023/02/20 15:26:17;;;;;;;270.65;111.57;;;23.30;40.00;;;;;;6241493;27;87224;-66
2023/02/20 15:29:17;;;;;;;251.98;107.95;;;23.30;40.00;;;;;;6217953;28;87192;-66
2023/02/20 15:32:18;;;;;;;235.77;100.03;;;23.30;40.20;;;;;;6220861;28;87139;-67
2023/02/20 15:35:19;;;;;;;208.75;90.18;;;23.30;40.10;;;;;;6222905;27;85263;-66
2023/02/20 15:38:19;;;;;;;208.65;81.93;;;23.30;40.50;;;;;;6232790;27;88269;-65
2023/02/20 15:41:20;;;;;;;177.60;78.10;;;23.30;40.10;;;;;;6237636;27;83858;-66
2023/02/20 15:44:21;;;;;;;178.90;77.70;;;23.30;40.50;;;;;;6239430;27;87361;-67
2023/02/20 15:47:21;;;;;;;165.48;69.30;;;23.30;40.80;;;;;;6231479;27;83533;-64
2023/02/20 15:50:22;;;;;;;153.73;64.55;;;23.30;41.20;;;;;;6231897;27;84340;-62
2023/02/20 15:53:22;;;;;;;143.48;63.28;;;23.30;40.80;;;;;;6240853;27;83548;-60
2023/02/20 15:56:23;;;;;;;135.52;60.20;;;23.30;41.50;;;;;;6216927;28;84255;-63
2023/02/20 15:59:23;;;;;;;145.77;60.33;;;23.30;42.00;;;;;;6226193;27;83372;-63
2023/02/20 16:02:24;;;;;;;125.93;53.20;;;23.30;42.40;;;;;;6235865;27;83434;-63
2023/02/20 16:05:24;;;;;;;130.40;53.22;;;23.20;42.80;;;;;;6242048;27;84120;-63
2023/02/20 16:08:25;;;;;;;120.00;52.65;;;23.30;43.20;;;;;;6231682;27;83371;-63
2023/02/20 16:11:25;;;;;;;113.43;46.97;;;23.20;43.20;;;;;;6236445;27;85799;-63
2023/02/20 16:14:26;;;;;;;107.93;47.72;;;23.20;43.40;;;;;;6241266;27;83192;-61